Time;durP1;ratioP1;P1;durP2;ratioP2;P2;SDS_P1;SDS_P2;PMS_P1;PMS_P2;Temp;Humidity;BMP_temperature;BMP_pressure;BME280_temperature;BME280_humidity;BME280_pressure;Samples;Min_cycle;Max_cycle;Signal;HPM_P1;HPM_P2
2022/01/30 00:01:39;;;;;;;20.27;5.50;;;5.90;99.90;;;;;;5032436;28;21020;-51
2022/01/30 00:04:06;;;;;;;21.70;5.13;;;5.90;99.90;;;;;;5032669;28;20493;-51
2022/01/30 00:06:32;;;;;;;20.50;5.17;;;5.90;99.90;;;;;;5032586;28;20546;-50
2022/01/30 00:08:59;;;;;;;26.70;5.33;;;5.70;99.90;;;;;;5032047;28;20555;-52
2022/01/30 00:11:31;;;;;;;15.70;5.47;;;5.60;99.90;;;;;;5032463;28;20530;-51
2022/01/30 00:13:58;;;;;;;19.33;5.20;;;5.60;99.90;;;;;;5031399;28;20501;-50
2022/01/30 00:16:31;;;;;;;14.63;4.77;;;5.50;99.90;;;;;;5032492;28;20482;-51
2022/01/30 00:19:03;;;;;;;27.37;5.10;;;5.50;99.90;;;;;;5032066;28;20447;-51
2022/01/30 00:21:35;;;;;;;20.10;4.30;;;5.50;99.90;;;;;;5032381;28;20451;-51
2022/01/30 00:24:06;;;;;;;21.87;4.87;;;5.50;99.90;;;;;;5031775;28;20447;-51
2022/01/30 00:26:35;;;;;;;29.43;6.10;;;5.50;99.90;;;;;;5031215;28;20486;-51
2022/01/30 00:29:03;;;;;;;23.10;5.47;;;5.50;99.90;;;;;;5032049;28;20505;-51
2022/01/30 00:31:32;;;;;;;18.60;5.40;;;5.50;99.90;;;;;;5032095;28;20856;-51
2022/01/30 00:33:59;;;;;;;24.47;5.70;;;5.60;99.90;;;;;;5032119;28;20482;-51
2022/01/30 00:36:26;;;;;;;18.17;5.57;;;5.60;99.90;;;;;;5032059;28;20485;-51
2022/01/30 00:38:53;;;;;;;22.43;5.23;;;5.70;99.90;;;;;;5031619;28;20512;-51
2022/01/30 00:41:19;;;;;;;27.37;6.07;;;5.70;99.90;;;;;;5031956;28;20837;-51
2022/01/30 00:43:46;;;;;;;22.37;4.97;;;5.90;99.90;;;;;;5031943;28;21001;-51
2022/01/30 00:46:12;;;;;;;25.30;5.80;;;5.90;99.90;;;;;;5031081;28;20581;-51
2022/01/30 00:48:40;;;;;;;18.77;5.60;;;5.90;99.90;;;;;;5031800;28;20957;-51
2022/01/30 00:51:07;;;;;;;18.17;5.10;;;5.90;99.90;;;;;;5031585;28;20798;-51
2022/01/30 00:53:34;;;;;;;16.00;4.73;;;5.90;99.90;;;;;;5031682;28;20566;-51
2022/01/30 00:56:00;;;;;;;15.87;4.30;;;6.00;99.90;;;;;;5031674;28;20554;-51
2022/01/30 00:58:27;;;;;;;10.93;3.30;;;6.00;99.90;;;;;;5031634;28;20553;-52
2022/01/30 01:00:54;;;;;;;15.53;4.67;;;6.00;99.90;;;;;;5031882;28;20504;-52
2022/01/30 01:03:20;;;;;;;21.13;5.13;;;6.00;99.90;;;;;;5031787;28;20526;-51
2022/01/30 01:05:49;;;;;;;12.53;4.17;;;5.90;99.90;;;;;;5031656;28;20503;-52
2022/01/30 01:08:20;;;;;;;23.07;5.97;;;5.90;99.90;;;;;;5031324;28;20454;-52
2022/01/30 01:10:51;;;;;;;20.37;4.47;;;5.90;99.90;;;;;;5031842;28;20486;-52
2022/01/30 01:24:21;;;;;;;20.83;4.87;;;5.90;99.90;;;;;;5031633;28;20901;-51
2022/01/30 01:26:47;;;;;;;17.73;5.80;;;5.90;99.90;;;;;;5031077;28;20578;-51
2022/01/30 01:29:15;;;;;;;16.80;4.50;;;5.80;99.90;;;;;;5026975;28;20626;-51
2022/01/30 01:31:41;;;;;;;20.53;5.60;;;5.90;99.90;;;;;;5031655;28;20451;-51
2022/01/30 01:34:22;;;;;;;21.53;5.27;;;5.90;99.90;;;;;;5031633;28;20573;-51
2022/01/30 01:36:50;;;;;;;19.10;5.70;;;5.90;99.90;;;;;;5033722;28;20557;-50
2022/01/30 01:39:17;;;;;;;23.43;5.43;;;6.00;99.90;;;;;;5035010;28;20481;-52
2022/01/30 01:41:43;;;;;;;23.57;5.70;;;6.00;99.90;;;;;;5035468;28;20474;-51
2022/01/30 01:44:17;;;;;;;32.50;6.33;;;6.00;99.90;;;;;;5035404;28;20530;-51
2022/01/30 01:46:45;;;;;;;22.33;4.60;;;5.80;99.90;;;;;;5033982;28;20482;-51
2022/01/30 01:49:19;;;;;;;27.60;6.17;;;5.70;99.90;;;;;;5034951;28;20450;-51
2022/01/30 01:51:49;;;;;;;23.17;6.00;;;5.60;99.90;;;;;;5035066;28;20455;-51
2022/01/30 01:54:17;;;;;;;22.27;5.03;;;5.60;99.90;;;;;;5035209;28;20867;-49
2022/01/30 01:56:44;;;;;;;19.63;4.97;;;5.60;99.90;;;;;;5034918;28;20471;-50
2022/01/30 01:59:12;;;;;;;15.50;4.47;;;5.50;99.90;;;;;;5034368;28;20529;-50
2022/01/30 02:01:38;;;;;;;21.30;4.80;;;5.50;99.90;;;;;;5034915;28;20454;-49
2022/01/30 02:04:05;;;;;;;31.17;7.23;;;5.50;99.90;;;;;;5034794;28;20485;-51
2022/01/30 02:06:32;;;;;;;25.87;7.13;;;5.40;99.90;;;;;;5034566;28;20477;-51
2022/01/30 02:09:05;;;;;;;23.97;5.87;;;5.30;96.00;;;;;;5034429;28;20796;-50
2022/01/30 02:11:37;;;;;;;21.57;5.97;;;5.30;67.10;;;;;;5034918;28;20451;-51
2022/01/30 02:25:13;;;;;;;21.33;5.20;;;4.80;28.00;;;;;;5034540;28;20796;-51
2022/01/30 02:27:39;;;;;;;26.40;5.23;;;4.80;26.90;;;;;;5038686;28;20456;-50
2022/01/30 02:30:13;;;;;;;23.10;5.80;;;4.80;41.40;;;;;;5054345;28;20473;-50
2022/01/30 02:32:39;;;;;;;22.90;4.70;;;4.90;56.40;;;;;;5037795;28;20478;-50
2022/01/30 02:35:07;;;;;;;28.27;7.00;;;5.00;77.50;;;;;;5034379;28;20507;-51
2022/01/30 02:37:35;;;;;;;24.80;5.40;;;5.10;99.90;;;;;;5034333;28;20546;-50
2022/01/30 02:40:04;;;;;;;21.77;5.23;;;5.30;99.90;;;;;;5044457;28;20454;-51
2022/01/30 02:42:33;;;;;;;12.03;4.63;;;5.60;99.90;;;;;;5034259;28;20451;-51
2022/01/30 02:45:03;;;;;;;22.60;6.13;;;5.70;99.90;;;;;;5033839;28;20447;-51
2022/01/30 02:47:41;;;;;;;14.40;4.20;;;5.80;99.90;;;;;;5031441;28;20459;-51
2022/01/30 02:50:20;;;;;;;17.33;4.83;;;6.00;23.20;;;;;;5033412;28;20921;-51
2022/01/30 02:52:56;;;;;;;19.37;4.33;;;5.90;21.70;;;;;;5033892;28;20962;-51
2022/01/30 02:55:23;;;;;;;19.87;5.27;;;6.10;31.50;;;;;;5033615;28;20536;-51
2022/01/30 02:57:50;;;;;;;11.17;4.83;;;6.10;37.30;;;;;;5033411;28;20439;-51
2022/01/30 03:00:17;;;;;;;17.40;4.30;;;6.20;39.40;;;;;;5033590;28;20493;-52
2022/01/30 03:02:44;;;;;;;16.73;4.63;;;6.10;46.80;;;;;;5033856;28;20475;-50
2022/01/30 03:05:10;;;;;;;17.27;5.17;;;6.10;39.30;;;;;;5033756;28;20486;-50
2022/01/30 03:07:37;;;;;;;13.90;4.13;;;6.10;36.20;;;;;;5033416;28;20478;-52
2022/01/30 03:10:06;;;;;;;22.07;5.07;;;6.10;28.10;;;;;;5033564;28;21027;-51
2022/01/30 03:12:32;;;;;;;13.63;4.07;;;6.00;32.00;;;;;;5033832;28;20451;-51
2022/01/30 03:14:59;;;;;;;23.57;7.20;;;6.00;24.60;;;;;;5033596;28;20733;-51
2022/01/30 03:17:25;;;;;;;17.50;4.33;;;6.00;91.10;;;;;;5032499;28;20574;-51
2022/01/30 03:19:52;;;;;;;21.17;5.63;;;6.00;30.50;;;;;;5033539;28;20842;-51
2022/01/30 03:22:19;;;;;;;18.30;4.90;;;6.10;47.50;;;;;;5033198;28;20526;-51
2022/01/30 03:24:45;;;;;;;23.90;5.30;;;6.10;48.30;;;;;;5033404;28;20483;-51
2022/01/30 03:27:14;;;;;;;27.53;5.60;;;6.10;58.00;;;;;;5033218;28;20521;-52
2022/01/30 03:29:41;;;;;;;24.53;4.87;;;6.10;64.10;;;;;;5033186;28;20446;-51
2022/01/30 03:32:08;;;;;;;22.13;5.53;;;6.00;59.20;;;;;;5033321;28;20451;-51
2022/01/30 03:34:35;;;;;;;19.33;5.30;;;6.00;58.40;;;;;;5033084;28;20518;-52
2022/01/30 03:37:01;;;;;;;23.80;5.37;;;5.90;50.40;;;;;;5032932;28;21079;-51
2022/01/30 03:39:28;;;;;;;28.23;5.50;;;5.90;38.20;;;;;;5032677;28;20995;-51
2022/01/30 03:41:54;;;;;;;22.80;5.40;;;5.90;35.20;;;;;;5033223;28;20509;-51
2022/01/30 03:44:22;;;;;;;27.13;5.67;;;5.80;28.70;;;;;;5033080;28;20473;-51
2022/01/30 03:46:49;;;;;;;29.67;6.70;;;5.60;99.90;;;;;;5031994;28;20545;-51
2022/01/30 03:49:16;;;;;;;20.37;4.77;;;5.60;99.90;;;;;;5032660;28;20538;-51
2022/01/30 03:51:42;;;;;;;22.53;5.50;;;5.50;99.90;;;;;;5032529;28;20897;-51
2022/01/30 03:54:09;;;;;;;25.90;4.57;;;5.40;99.90;;;;;;5032862;28;20514;-51
2022/01/30 03:56:35;;;;;;;16.03;5.23;;;5.30;99.90;;;;;;5032823;28;20470;-51
2022/01/30 03:59:02;;;;;;;15.83;4.37;;;5.30;99.90;;;;;;5032477;28;20531;-51
2022/01/30 04:01:30;;;;;;;18.10;4.93;;;5.30;99.90;;;;;;5032827;28;20534;-51
2022/01/30 04:03:57;;;;;;;20.07;5.17;;;5.30;99.90;;;;;;5032174;28;20500;-51
2022/01/30 04:06:24;;;;;;;31.37;6.30;;;5.20;99.90;;;;;;5032439;28;20486;-51
2022/01/30 04:08:51;;;;;;;22.47;4.60;;;5.30;99.90;;;;;;5032467;28;20478;-51
2022/01/30 04:11:18;;;;;;;14.20;4.33;;;5.50;99.90;;;;;;5032594;28;20856;-51
2022/01/30 04:13:45;;;;;;;11.73;3.70;;;5.60;99.90;;;;;;5032445;28;20566;-51
2022/01/30 04:16:12;;;;;;;17.37;4.93;;;5.60;99.90;;;;;;5031561;28;21152;-51
2022/01/30 04:18:40;;;;;;;17.97;3.83;;;5.60;99.90;;;;;;5031847;28;20529;-51
2022/01/30 04:21:07;;;;;;;22.60;4.13;;;5.50;99.90;;;;;;5032273;28;20474;-51
2022/01/30 04:23:34;;;;;;;8.73;3.80;;;5.40;99.90;;;;;;5032393;28;20478;-51
2022/01/30 04:26:00;;;;;;;13.77;3.50;;;5.50;99.90;;;;;;5032544;28;20478;-51
2022/01/30 04:28:27;;;;;;;11.50;4.83;;;5.50;99.90;;;;;;5051809;28;20533;-52
2022/01/30 04:30:54;;;;;;;18.93;5.00;;;5.50;99.90;;;;;;5052065;28;20534;-51
2022/01/30 04:33:21;;;;;;;29.53;5.47;;;5.60;92.60;;;;;;5031975;28;20979;-52
2022/01/30 04:35:50;;;;;;;25.50;5.03;;;5.60;25.10;;;;;;5032190;28;20510;-52
2022/01/30 04:38:22;;;;;;;28.33;5.23;;;5.70;37.10;;;;;;5031910;28;20462;-52
2022/01/30 04:41:10;;;;;;;20.87;4.90;;;5.80;39.10;;;;;;5032107;28;20524;-51
2022/01/30 04:52:19;;;;;;;27.40;6.10;;;5.90;68.10;;;;;;5012191;28;20442;-52
2022/01/30 04:57:47;;;;;;;19.73;4.87;;;5.90;60.40;;;;;;5011950;28;20463;-52
2022/01/30 05:00:30;;;;;;;32.03;5.87;;;5.90;65.20;;;;;;5024512;28;20501;-51
2022/01/30 05:03:05;;;;;;;23.13;5.00;;;5.90;65.50;;;;;;5031725;28;20450;-50
2022/01/30 05:05:54;;;;;;;24.87;5.33;;;5.80;51.20;;;;;;5031824;28;20497;-51
2022/01/30 05:08:23;;;;;;;13.97;4.50;;;5.90;55.50;;;;;;5031352;28;20454;-51
2022/01/30 05:10:49;;;;;;;16.50;4.97;;;5.90;50.70;;;;;;5032320;28;20470;-50
2022/01/30 05:13:20;;;;;;;19.07;5.57;;;5.80;45.40;;;;;;5035502;28;20437;-51
2022/01/30 05:15:47;;;;;;;24.47;5.20;;;5.90;62.10;;;;;;5034843;28;20532;-50
2022/01/30 05:18:18;;;;;;;20.43;4.63;;;5.90;51.70;;;;;;5035591;28;20673;-51
2022/01/30 05:20:45;;;;;;;12.30;4.27;;;5.90;58.90;;;;;;5035915;28;20522;-52
2022/01/30 05:23:12;;;;;;;20.63;6.03;;;5.90;57.40;;;;;;5035760;28;20527;-51
2022/01/30 05:25:41;;;;;;;18.57;4.83;;;5.90;64.30;;;;;;5035294;28;20878;-51
2022/01/30 05:28:08;;;;;;;17.10;5.03;;;5.90;64.00;;;;;;5035105;28;20866;-52
2022/01/30 05:30:36;;;;;;;17.47;4.57;;;5.90;68.00;;;;;;5035522;28;20446;-52
2022/01/30 05:33:03;;;;;;;21.60;5.00;;;5.90;63.10;;;;;;5035466;28;20863;-52
2022/01/30 05:35:30;;;;;;;24.97;5.23;;;5.90;65.90;;;;;;5035369;28;20520;-52
2022/01/30 05:37:58;;;;;;;22.93;5.90;;;5.80;58.10;;;;;;5035044;28;20533;-52
2022/01/30 05:40:25;;;;;;;23.23;5.00;;;5.80;53.00;;;;;;5034796;28;20454;-51
2022/01/30 05:42:53;;;;;;;25.13;5.20;;;5.70;22.90;;;;;;5035448;28;20501;-51
2022/01/30 05:45:24;;;;;;;24.87;6.30;;;5.60;99.90;;;;;;5034087;28;20478;-51
2022/01/30 05:47:57;;;;;;;22.03;5.23;;;5.40;99.90;;;;;;5034826;28;20932;-51
2022/01/30 05:50:25;;;;;;;17.53;4.70;;;5.40;99.90;;;;;;5035342;28;20455;-51
2022/01/30 05:52:51;;;;;;;13.90;4.93;;;5.40;99.90;;;;;;5034919;28;20533;-51
2022/01/30 05:55:18;;;;;;;24.97;5.87;;;5.40;78.40;;;;;;5034921;28;20533;-52
2022/01/30 05:57:45;;;;;;;25.03;5.30;;;5.60;40.30;;;;;;5034790;28;21068;-50
2022/01/30 06:00:15;;;;;;;27.97;6.50;;;5.70;37.00;;;;;;5034968;28;20443;-51
2022/01/30 06:02:42;;;;;;;23.97;5.17;;;5.70;50.00;;;;;;5035016;28;20447;-51
2022/01/30 06:05:09;;;;;;;29.60;7.10;;;5.70;49.60;;;;;;5034770;28;20439;-51
2022/01/30 06:07:43;;;;;;;19.63;5.03;;;5.70;54.00;;;;;;5034088;28;21026;-51
2022/01/30 06:10:10;;;;;;;17.90;5.17;;;5.80;57.60;;;;;;5034961;28;20504;-51
2022/01/30 06:12:36;;;;;;;17.87;5.37;;;5.70;53.20;;;;;;5034777;28;20880;-51
2022/01/30 06:15:03;;;;;;;21.87;5.87;;;5.80;56.30;;;;;;5033787;28;20574;-51
2022/01/30 06:17:31;;;;;;;15.50;5.00;;;5.80;63.20;;;;;;5034307;28;20874;-51
2022/01/30 06:19:58;;;;;;;25.57;6.73;;;5.90;72.50;;;;;;5034423;28;20532;-51
2022/01/30 06:22:24;;;;;;;20.90;6.50;;;5.80;60.50;;;;;;5033932;28;20497;-51
2022/01/30 06:24:51;;;;;;;27.60;5.77;;;5.90;62.80;;;;;;5034126;28;20542;-52
2022/01/30 06:27:17;;;;;;;22.13;5.70;;;5.90;64.10;;;;;;5034063;28;20561;-52
2022/01/30 06:29:44;;;;;;;25.60;6.03;;;5.90;74.80;;;;;;5034197;28;20537;-50
2022/01/30 06:32:11;;;;;;;18.23;4.40;;;5.90;71.20;;;;;;5034318;28;20960;-51
2022/01/30 06:34:39;;;;;;;23.07;5.03;;;5.90;69.80;;;;;;5034402;28;20518;-51
2022/01/30 06:37:06;;;;;;;18.07;5.10;;;6.00;76.00;;;;;;5032966;28;20522;-50
2022/01/30 06:39:32;;;;;;;16.33;4.43;;;5.90;75.30;;;;;;5033890;28;20478;-52
2022/01/30 06:41:59;;;;;;;19.20;5.47;;;5.90;70.00;;;;;;5014309;28;21004;-51
2022/01/30 06:44:26;;;;;;;18.60;5.17;;;5.90;69.30;;;;;;5014314;28;20937;-51
2022/01/30 06:46:52;;;;;;;22.00;4.87;;;5.90;65.80;;;;;;5014183;28;21065;-50
2022/01/30 06:49:19;;;;;;;22.40;5.20;;;5.90;66.30;;;;;;5028248;28;20462;-50
2022/01/30 06:51:47;;;;;;;18.80;4.70;;;5.80;50.20;;;;;;5034255;28;20891;-52
2022/01/30 06:54:14;;;;;;;39.77;5.53;;;5.80;56.90;;;;;;5034206;28;20518;-52
2022/01/30 06:56:40;;;;;;;19.37;5.30;;;5.80;56.90;;;;;;5033849;28;20499;-50
2022/01/30 06:59:07;;;;;;;21.17;5.33;;;5.80;60.50;;;;;;5033641;28;20478;-52
2022/01/30 07:01:33;;;;;;;24.33;5.60;;;5.90;61.00;;;;;;5033856;28;20540;-51
2022/01/30 07:04:00;;;;;;;22.00;5.87;;;5.90;65.80;;;;;;5033597;28;20443;-51
2022/01/30 07:06:26;;;;;;;24.07;5.70;;;5.90;68.00;;;;;;5033706;28;20553;-52
2022/01/30 07:08:54;;;;;;;25.67;5.00;;;5.90;69.60;;;;;;5033469;28;20521;-51
2022/01/30 07:11:21;;;;;;;23.17;5.10;;;6.00;73.40;;;;;;5034071;28;20529;-51
2022/01/30 07:13:47;;;;;;;23.07;5.90;;;5.90;68.60;;;;;;5033553;28;20535;-50
2022/01/30 07:16:15;;;;;;;17.73;5.10;;;6.00;67.60;;;;;;5033357;28;20510;-50
2022/01/30 07:18:42;;;;;;;22.43;4.73;;;6.00;70.60;;;;;;5032270;28;20474;-50
2022/01/30 07:21:09;;;;;;;18.20;5.10;;;6.00;75.50;;;;;;5033675;28;20562;-52
2022/01/30 07:23:36;;;;;;;27.43;6.10;;;6.00;74.40;;;;;;5033585;28;20825;-51
2022/01/30 07:26:05;;;;;;;15.87;5.17;;;6.00;74.80;;;;;;5033334;28;20503;-52
2022/01/30 07:28:31;;;;;;;22.33;5.03;;;6.00;59.70;;;;;;5033119;28;20530;-51
2022/01/30 07:30:58;;;;;;;23.40;5.20;;;6.00;68.80;;;;;;5032887;28;20961;-51
2022/01/30 07:33:24;;;;;;;31.07;6.83;;;5.90;45.30;;;;;;5032852;28;20644;-51
2022/01/30 07:35:53;;;;;;;13.30;4.77;;;5.80;28.50;;;;;;5033083;28;20665;-51
2022/01/30 07:38:21;;;;;;;27.27;5.93;;;5.60;99.90;;;;;;5032861;28;20455;-51
2022/01/30 07:40:48;;;;;;;19.13;4.80;;;5.60;99.90;;;;;;5032757;28;20455;-52
2022/01/30 07:43:16;;;;;;;16.33;3.53;;;5.60;41.40;;;;;;5032867;28;20533;-51
2022/01/30 07:45:42;;;;;;;21.93;4.33;;;5.90;63.30;;;;;;5033012;28;20474;-52
2022/01/30 07:48:09;;;;;;;11.93;4.20;;;5.90;65.10;;;;;;5031899;28;20486;-52
2022/01/30 07:50:35;;;;;;;16.70;4.23;;;6.00;66.70;;;;;;5032921;28;20871;-51
2022/01/30 07:53:02;;;;;;;16.00;4.60;;;5.90;57.60;;;;;;5033169;28;20482;-51
2022/01/30 07:55:29;;;;;;;14.53;4.17;;;6.00;77.30;;;;;;5032376;28;21023;-51
2022/01/30 07:57:55;;;;;;;24.47;5.70;;;6.00;72.80;;;;;;5032214;28;20455;-51
2022/01/30 08:00:23;;;;;;;17.83;4.80;;;6.00;83.20;;;;;;5032951;28;20482;-51
2022/01/30 08:02:50;;;;;;;14.77;4.23;;;6.10;81.50;;;;;;5032843;28;20550;-51
2022/01/30 08:05:17;;;;;;;27.10;5.27;;;6.10;91.70;;;;;;5029396;28;20987;-51
2022/01/30 08:07:43;;;;;;;19.80;6.00;;;6.10;83.50;;;;;;5026945;28;20539;-51
2022/01/30 08:10:10;;;;;;;16.47;4.40;;;6.10;79.50;;;;;;5032334;28;21027;-51
2022/01/30 08:12:38;;;;;;;19.60;6.13;;;6.10;85.00;;;;;;5032676;28;20479;-52
2022/01/30 08:15:05;;;;;;;18.17;6.70;;;6.10;75.50;;;;;;5032483;28;20478;-50
2022/01/30 08:17:36;;;;;;;15.80;5.10;;;6.10;71.40;;;;;;5031376;28;20968;-49
2022/01/30 08:20:03;;;;;;;14.73;4.40;;;6.00;71.20;;;;;;5031296;28;20824;-50
2022/01/30 08:22:31;;;;;;;15.27;5.20;;;6.00;64.50;;;;;;5032399;28;20501;-50
2022/01/30 08:24:58;;;;;;;27.70;4.57;;;6.00;74.90;;;;;;5031862;28;20455;-50
2022/01/30 08:27:24;;;;;;;25.67;5.60;;;6.10;84.00;;;;;;5032063;28;20493;-51
2022/01/30 08:29:51;;;;;;;21.87;5.03;;;6.10;93.50;;;;;;5032384;28;20537;-51
2022/01/30 08:32:18;;;;;;;22.03;4.80;;;6.20;87.90;;;;;;5032008;28;20451;-50
2022/01/30 08:34:46;;;;;;;29.70;7.33;;;6.10;87.70;;;;;;5032054;28;20451;-51
2022/01/30 08:37:12;;;;;;;18.90;4.77;;;6.10;87.70;;;;;;5031909;28;20480;-51
2022/01/30 08:39:39;;;;;;;22.33;5.90;;;6.10;83.60;;;;;;5031841;28;20454;-52
2022/01/30 08:42:06;;;;;;;21.10;5.37;;;6.20;91.00;;;;;;5031836;28;20881;-51
2022/01/30 08:44:33;;;;;;;18.97;5.80;;;6.20;90.10;;;;;;5032135;28;20447;-50
2022/01/30 08:47:00;;;;;;;23.20;5.20;;;6.20;91.50;;;;;;5029962;28;20478;-50
2022/01/30 08:49:27;;;;;;;27.67;5.50;;;6.30;95.00;;;;;;5030799;28;20505;-51
2022/01/30 08:51:55;;;;;;;19.17;5.50;;;6.30;99.90;;;;;;5031782;28;20493;-50
2022/01/30 08:54:21;;;;;;;18.93;5.30;;;6.40;99.90;;;;;;5031298;28;20447;-50
2022/01/30 08:56:48;;;;;;;27.57;5.90;;;6.30;99.90;;;;;;5031785;28;20574;-50
2022/01/30 08:59:15;;;;;;;20.87;5.43;;;6.40;99.90;;;;;;5031430;28;20987;-50
2022/01/30 09:01:41;;;;;;;19.33;4.90;;;6.50;99.90;;;;;;5031689;28;20442;-50
2022/01/30 09:04:08;;;;;;;16.13;5.13;;;6.50;99.90;;;;;;5031688;28;20497;-50
2022/01/30 09:06:36;;;;;;;23.63;5.47;;;6.60;99.90;;;;;;5031377;28;20545;-50
2022/01/30 09:09:05;;;;;;;21.13;6.47;;;6.60;99.90;;;;;;5031477;28;20537;-50
2022/01/30 09:11:33;;;;;;;26.83;6.33;;;6.70;99.90;;;;;;5031507;28;20451;-50
2022/01/30 09:14:00;;;;;;;21.33;5.27;;;6.70;99.90;;;;;;5031807;28;20446;-50
2022/01/30 09:16:26;;;;;;;29.00;6.17;;;6.70;99.90;;;;;;5031505;28;20905;-50
2022/01/30 09:18:53;;;;;;;15.70;5.20;;;6.70;99.90;;;;;;5030250;28;21035;-50
2022/01/30 09:21:21;;;;;;;23.73;6.30;;;6.80;99.90;;;;;;5031712;28;20482;-51
2022/01/30 09:23:47;;;;;;;17.67;5.10;;;7.00;99.90;;;;;;5031470;28;21014;-50
2022/01/30 09:26:15;;;;;;;35.50;6.90;;;6.90;99.90;;;;;;5031111;28;20513;-50
2022/01/30 09:28:42;;;;;;;29.27;6.43;;;6.80;99.90;;;;;;5031341;28;20471;-51
2022/01/30 09:31:08;;;;;;;21.47;6.90;;;6.90;99.90;;;;;;5031583;28;20893;-51
2022/01/30 09:33:35;;;;;;;25.50;6.07;;;6.80;99.90;;;;;;5031402;28;21117;-51
2022/01/30 09:36:01;;;;;;;25.67;5.30;;;6.70;99.90;;;;;;5031302;28;20573;-51
2022/01/30 09:38:28;;;;;;;20.53;4.70;;;6.70;99.90;;;;;;5031191;28;20940;-51
2022/01/30 09:40:56;;;;;;;32.93;5.67;;;6.70;99.90;;;;;;5031330;28;20487;-50
2022/01/30 09:43:24;;;;;;;44.00;7.43;;;6.70;99.90;;;;;;5031420;28;20496;-50
2022/01/30 09:45:52;;;;;;;27.77;8.70;;;6.60;99.90;;;;;;5031329;28;20541;-50
2022/01/30 09:48:19;;;;;;;23.93;6.93;;;6.70;99.90;;;;;;5030033;28;20971;-50
2022/01/30 09:50:46;;;;;;;20.43;5.60;;;6.60;99.90;;;;;;5031172;28;20474;-51
2022/01/30 09:53:12;;;;;;;16.03;4.80;;;6.70;99.90;;;;;;5031480;28;20533;-49
2022/01/30 09:55:39;;;;;;;24.27;6.20;;;6.60;99.90;;;;;;5031283;28;20573;-49
2022/01/30 09:58:06;;;;;;;25.27;7.00;;;6.70;99.90;;;;;;5033269;28;20541;-50
2022/01/30 10:00:34;;;;;;;23.23;6.67;;;6.60;99.90;;;;;;5034837;28;20820;-51
2022/01/30 10:03:00;;;;;;;25.17;6.70;;;6.60;99.90;;;;;;5035259;28;20534;-50
2022/01/30 10:05:30;;;;;;;25.30;6.40;;;6.60;99.90;;;;;;5035065;28;20498;-50
2022/01/30 10:07:57;;;;;;;25.37;6.47;;;6.60;99.90;;;;;;5034680;28;20489;-50
2022/01/30 10:10:28;;;;;;;21.83;5.70;;;6.60;99.90;;;;;;5034929;28;20446;-51
2022/01/30 10:13:04;;;;;;;27.80;5.63;;;6.60;99.90;;;;;;5034481;28;20447;-52
2022/01/30 10:15:31;;;;;;;21.30;5.83;;;6.70;99.90;;;;;;5034595;28;20568;-52
2022/01/30 10:18:04;;;;;;;34.60;5.87;;;6.70;99.90;;;;;;5033727;28;20520;-50
2022/01/30 10:20:37;;;;;;;30.60;5.27;;;6.70;99.90;;;;;;5034201;28;20457;-50
2022/01/30 10:23:08;;;;;;;22.10;5.90;;;6.70;99.90;;;;;;5034595;28;20451;-50
2022/01/30 10:25:37;;;;;;;33.43;7.67;;;6.80;99.90;;;;;;5034298;28;20478;-50
2022/01/30 10:28:10;;;;;;;33.40;6.10;;;6.90;99.90;;;;;;5034483;28;20525;-51
2022/01/30 10:30:45;;;;;;;27.53;5.63;;;6.90;99.90;;;;;;5034423;28;20530;-50
2022/01/30 10:33:14;;;;;;;30.00;6.47;;;6.80;99.90;;;;;;5034552;28;20856;-50
2022/01/30 10:35:50;;;;;;;26.83;6.43;;;6.80;99.90;;;;;;5034222;28;20525;-51
2022/01/30 10:38:21;;;;;;;22.00;6.30;;;6.80;99.90;;;;;;5033587;28;20956;-50
2022/01/30 10:40:59;;;;;;;24.93;6.53;;;6.80;99.90;;;;;;5034401;28;20475;-50
2022/01/30 10:43:48;;;;;;;36.20;7.37;;;6.80;99.90;;;;;;5034101;28;20447;-49
2022/01/30 10:46:20;;;;;;;25.10;5.90;;;6.70;99.90;;;;;;5034040;28;20542;-50
2022/01/30 10:48:56;;;;;;;31.93;7.70;;;6.80;99.90;;;;;;5032935;28;20494;-51
2022/01/30 10:51:24;;;;;;;26.77;6.70;;;6.80;99.90;;;;;;5034241;28;20493;-51
2022/01/30 10:53:51;;;;;;;31.93;6.40;;;6.70;99.90;;;;;;5034116;28;20535;-51
2022/01/30 10:56:24;;;;;;;25.17;6.17;;;6.80;99.90;;;;;;5033884;28;20489;-51
2022/01/30 10:59:08;;;;;;;29.10;7.10;;;6.70;99.90;;;;;;5033610;28;20473;-51
2022/01/30 11:01:38;;;;;;;23.43;5.13;;;6.70;99.90;;;;;;5033774;28;20530;-50
2022/01/30 11:04:06;;;;;;;33.50;8.33;;;6.70;99.90;;;;;;5033978;28;20534;-50
2022/01/30 11:06:38;;;;;;;30.20;8.10;;;6.80;99.90;;;;;;5033761;28;20494;-50
2022/01/30 11:09:06;;;;;;;38.67;7.77;;;6.80;99.90;;;;;;5032486;28;20542;-50
2022/01/30 11:11:39;;;;;;;20.17;6.03;;;6.80;99.90;;;;;;5033634;28;20948;-51
2022/01/30 11:14:21;;;;;;;34.80;6.50;;;6.70;99.90;;;;;;5033965;28;20553;-52
2022/01/30 11:17:05;;;;;;;29.20;7.87;;;6.70;99.90;;;;;;5033295;28;20493;-50
2022/01/30 11:19:35;;;;;;;27.13;6.60;;;6.70;99.90;;;;;;5032118;28;20473;-51
2022/01/30 11:22:05;;;;;;;33.93;7.67;;;6.70;99.90;;;;;;5033798;28;20483;-50
2022/01/30 11:24:35;;;;;;;20.90;5.30;;;6.70;99.90;;;;;;5033697;28;20443;-52
2022/01/30 11:27:04;;;;;;;32.57;7.43;;;6.80;99.90;;;;;;5032400;28;20941;-50
2022/01/30 11:29:35;;;;;;;32.03;8.50;;;6.80;99.90;;;;;;5033480;28;20455;-50
2022/01/30 11:32:03;;;;;;;30.77;6.63;;;6.90;99.90;;;;;;5033063;28;20478;-52
2022/01/30 11:34:30;;;;;;;23.83;6.30;;;6.80;99.90;;;;;;5033104;28;20528;-51
2022/01/30 11:36:58;;;;;;;27.13;6.30;;;6.80;99.90;;;;;;5033181;28;20577;-51
2022/01/30 11:39:25;;;;;;;24.53;6.40;;;6.90;99.90;;;;;;5033027;28;20534;-51
2022/01/30 11:42:10;;;;;;;36.53;7.10;;;6.80;99.90;;;;;;5032853;28;21041;-51
2022/01/30 11:44:36;;;;;;;29.83;6.43;;;6.90;99.90;;;;;;5033095;28;20500;-51
2022/01/30 11:47:23;;;;;;;37.60;8.73;;;7.00;99.90;;;;;;5031984;28;20550;-51
2022/01/30 11:49:55;;;;;;;35.57;6.80;;;7.00;99.90;;;;;;5033013;28;20451;-50
2022/01/30 11:52:50;;;;;;;36.20;7.13;;;7.10;99.90;;;;;;5033061;28;20457;-51
2022/01/30 11:55:56;;;;;;;31.37;7.40;;;7.00;99.90;;;;;;5032752;28;20506;-50
2022/01/30 11:58:41;;;;;;;30.57;7.87;;;7.00;99.90;;;;;;5032649;28;20473;-51
2022/01/30 12:01:14;;;;;;;25.47;6.67;;;7.00;99.90;;;;;;5032777;28;20454;-51
2022/01/30 12:03:53;;;;;;;26.73;6.40;;;6.90;99.90;;;;;;5032269;28;20474;-50
2022/01/30 12:06:38;;;;;;;37.63;8.57;;;6.90;99.90;;;;;;5032557;28;20550;-50
2022/01/30 12:09:27;;;;;;;37.00;7.27;;;6.90;99.90;;;;;;5032428;28;21019;-50
2022/01/30 12:12:03;;;;;;;30.80;7.47;;;7.00;99.90;;;;;;5032583;28;20501;-50
2022/01/30 12:14:54;;;;;;;31.77;7.87;;;7.00;99.90;;;;;;5032725;28;20449;-51
2022/01/30 12:17:57;;;;;;;33.23;7.67;;;7.00;99.90;;;;;;5031288;28;20540;-50
2022/01/30 12:20:24;;;;;;;35.10;8.33;;;7.00;99.90;;;;;;5032299;28;20516;-50
2022/01/30 12:22:52;;;;;;;32.20;7.97;;;7.00;99.90;;;;;;5032591;28;20446;-51
2022/01/30 12:25:30;;;;;;;37.60;7.27;;;7.00;99.90;;;;;;5032025;28;20980;-51
2022/01/30 12:27:59;;;;;;;25.80;7.57;;;7.00;99.90;;;;;;5032051;28;20818;-50
2022/01/30 12:30:44;;;;;;;30.13;6.67;;;7.00;99.90;;;;;;5032197;28;20474;-50
2022/01/30 12:33:33;;;;;;;44.43;8.63;;;7.00;99.90;;;;;;5032365;28;20534;-51
2022/01/30 12:36:01;;;;;;;31.23;7.13;;;7.00;99.90;;;;;;5031787;28;20471;-50
2022/01/30 12:38:33;;;;;;;32.60;8.30;;;7.10;99.90;;;;;;5031845;28;20451;-50
2022/01/30 12:41:01;;;;;;;35.87;8.13;;;7.40;99.90;;;;;;5032094;28;20455;-52
2022/01/30 12:43:31;;;;;;;33.17;7.57;;;7.30;99.90;;;;;;5031810;28;22118;-51
2022/01/30 12:46:08;;;;;;;28.00;8.07;;;7.30;99.90;;;;;;5031950;28;20964;-51
2022/01/30 12:48:34;;;;;;;46.30;8.40;;;7.30;99.90;;;;;;5030914;28;20490;-50
2022/01/30 12:51:05;;;;;;;26.87;7.33;;;7.60;99.90;;;;;;5031833;28;20513;-50
2022/01/30 12:53:33;;;;;;;38.53;8.73;;;7.50;99.90;;;;;;5031835;28;20450;-51
2022/01/30 12:56:01;;;;;;;34.43;6.97;;;7.50;99.90;;;;;;5031893;28;20470;-51
2022/01/30 12:58:34;;;;;;;34.70;8.80;;;7.40;99.90;;;;;;5031695;28;20482;-51
2022/01/30 13:01:09;;;;;;;38.93;8.60;;;7.40;99.90;;;;;;5032015;28;20443;-51
2022/01/30 13:03:36;;;;;;;34.57;8.90;;;7.40;99.90;;;;;;5031661;28;20901;-50
2022/01/30 13:06:02;;;;;;;27.23;7.53;;;7.40;99.90;;;;;;5031150;28;20528;-50
2022/01/30 13:08:49;;;;;;;33.73;9.00;;;7.40;99.90;;;;;;5031642;28;20567;-51
2022/01/30 13:11:22;;;;;;;26.90;7.67;;;7.40;99.90;;;;;;5031855;28;20450;-51
2022/01/30 13:13:55;;;;;;;30.20;7.60;;;7.60;99.90;;;;;;5031782;28;20447;-51
2022/01/30 13:16:26;;;;;;;39.97;9.23;;;7.70;99.90;;;;;;5030455;28;20478;-51
2022/01/30 13:18:53;;;;;;;31.43;7.63;;;7.70;99.90;;;;;;5031591;28;20533;-50
2022/01/30 13:21:28;;;;;;;33.03;6.60;;;7.60;99.90;;;;;;5031932;28;20543;-51
2022/01/30 13:23:55;;;;;;;42.63;8.17;;;7.60;99.90;;;;;;5031259;28;20446;-51
2022/01/30 13:26:45;;;;;;;36.27;8.70;;;7.70;99.90;;;;;;5043761;22;20530;-54
2022/01/30 13:29:15;;;;;;;34.10;8.60;;;8.00;99.90;;;;;;5008003;28;21241;-52
2022/01/30 13:31:42;;;;;;;35.10;7.97;;;8.20;99.90;;;;;;5012331;28;20531;-51
2022/01/30 13:34:19;;;;;;;31.00;7.47;;;8.40;99.90;;;;;;5015750;28;20447;-52